Relevés horaires Bouveret (Suisse)


Relevés horaires à Bouveret - Vendredi 21 Août 2026
Heure UTC1 Température [°C] Vent [km/h] Hum. [%] Pres.4 [hPa] Visi. [Km] Nébu. [octa] Préc.5 [mm] Cond.
2m. Res. Ros. Dir.2 Vit. Moy. Raf.3
23:00 17.2 17.2 11.8 SSE 5.6 -- 35.2 71 1016.5(1.5/3h) -- -- -- --
22:00 19.5 18.9 12.4 ONO 33.3 -- 66.7 64 1015.4(1.3/3h) -- -- -- --
21:00 17.2 17.2 14.3 SE 7.4 -- 13.0 83 1015.5(1.8/3h) -- -- -- --
20:00 17.6 17.6 14.6 SSE 9.3 -- 11.1 83 1014.8(1.7/3h) -- -- -- --
19:00 18.3 18.3 14.3 S 5.6 -- 9.3 77 1014.2(1.2/3h) -- -- -- --
18:00 19.1 19.1 14.0 S 5.6 -- 20.4 72 1013.4(0.8/3h) -- -- -- --
17:00 19.8 19.8 12.5 ONO 5.6 -- 9.3 63 1012.7(-0.3/3h) -- -- -- --
16:00 20.2 20.2 12.2 N 3.7 -- 11.1 60 1012.7 -- -- -- --
15:00 19.0 19.0 12.6 SE 5.6 -- 20.4 66 1012.5(-0.3/3h) -- -- -- --
14:00 18.1 18.1 13.1 NO 3.7 -- 9.3 73 1013.3(0.7/3h) -- -- -- --
13:00 17.6 17.6 13.4 O 9.3 -- 20.4 76 1013.6(1.6/3h) -- -- -- --
12:00 17.2 17.1 13.1 O 11.1 -- 37.0 77 1013.1(1.7/3h) -- -- -- --
11:00 16.3 15.4 12.9 O 18.5 -- 35.2 80 1012.9 -- -- -- --
10:00 16.8 15.5 14.2 O 27.8 -- 37.0 85 1012(1.4/3h) -- -- -- --
09:00 17.7 17.3 15.0 ONO 16.7 -- 33.3 84 1011.3(1.1/3h) -- -- -- --
08:00 17.6 17.3 14.5 O 14.8 -- 20.4 82 1010.5 -- -- -- --
07:00 17.6 17.3 14.4 O 14.8 -- 33.3 82 1010.5 -- -- -- --
06:00 18.1 17.4 15.1 O 24.1 -- 38.9 83 1010.1(0.5/3h) -- -- -- --
05:00 17.9 17.9 16.0 SE 11.1 -- 22.2 89 1009.3 -- -- -- --
04:00 17.9 17.9 15.8 SE 9.3 -- 16.7 88 1009.6(-1.4/3h) -- -- -- --
03:00 18.5 18.5 16.4 SSE 7.4 -- 29.6 88 1009.5(-2.7/3h) -- -- -- --
02:00 19.4 19.4 16.2 SE 7.4 -- 13.0 82 1010.3(-1.2/3h) -- -- -- --
01:00 20.8 20.8 16.7 SO 11.1 -- 29.6 77 1010.6(-0.1/3h) -- -- -- --
00:00 20.1 20.1 18.0 ENE 3.7 -- 55.6 88 1012(1.8/3h) -- -- -- --

1 Coordinated Universal Time. Actuellement il est 12:00 locale et 10:00 UTC.

2 Le vent souffle depuis la direction indiquée vers la direction oposée.

3 Les rafales max. sont disponible 40 min après l'heure du relevé.

4 Pour les stations d'altitude (plus de 600m) le géopotentiel du niveau le plus proche de la pression obligatoire est indiqué.

5 Les stations disposant d'un diffuseur peuvent indiquer "trace". Cela signifie que des précipitations ont touchés le sol mais que la quantité est inférieure à 0.1 mm.

Copyright

Les données affichées sur cette page sont la propriété exclusive de Météo Suisse.

Récapitulatif de la journée
Température [°C] Vent [km/h] Ensoleillement4 [h] Precipitations totale5 [mm] Pression [Hpa]
Min1 Max.2 Moy.3 Max. Min Max.
17.8 20.2 0 66.7 0 h 0 min 0 1009.3 1016.5

1 Température minimale relevée entre 18:00 UTC la veille et 18:00 UTC le jour donné.

2 Température maximale relevée entre 06:00 UTC le jour donné et 06:00 UTC le lendemain.

3 Vent moyen de la journée basé sur les relevés horaires.

4 Ensoleillement en heures relevé entre 06:00 UTC la veille et 06:00 UTC le jour donné.

5 Précipitations totales tombées entre 06:00 UTC la jour donné et 06:00 UTC le lendemain.

Graphiques horaires